createdAt,value
2022-12-19T00:00:37.850Z,22.90
2022-12-19T00:03:06.313Z,26.43
2022-12-19T00:05:39.157Z,25.87
2022-12-19T00:08:16.946Z,22.93
2022-12-19T00:10:46.023Z,26.83
2022-12-19T00:13:18.373Z,27.47
2022-12-19T00:15:46.679Z,27.87
2022-12-19T00:18:15.068Z,25.13
2022-12-19T00:20:43.428Z,24.63
2022-12-19T00:23:12.019Z,26.27
2022-12-19T00:25:40.302Z,26.80
2022-12-19T00:28:09.819Z,30.43
2022-12-19T00:30:39.476Z,26.00
2022-12-19T00:33:08.005Z,27.07
2022-12-19T00:35:36.319Z,27.67
2022-12-19T00:38:04.558Z,24.60
2022-12-19T00:40:32.827Z,28.57
2022-12-19T00:43:01.108Z,24.20
2022-12-19T00:45:29.349Z,28.33
2022-12-19T00:48:00.058Z,23.80
2022-12-19T00:50:32.669Z,27.73
2022-12-19T00:53:00.886Z,26.67
2022-12-19T00:55:29.096Z,26.47
2022-12-19T00:57:57.677Z,25.27
2022-12-19T01:00:28.756Z,25.20
2022-12-19T01:02:57.012Z,26.85
2022-12-19T01:05:26.767Z,24.87
2022-12-19T01:07:55.389Z,23.17
2022-12-19T01:10:23.576Z,30.13
2022-12-19T01:12:50.871Z,26.57
2022-12-19T01:15:21.723Z,26.53
2022-12-19T01:17:51.529Z,25.43
2022-12-19T01:20:29.443Z,26.90
2022-12-19T01:23:00.066Z,24.57
2022-12-19T01:25:28.948Z,28.17
2022-12-19T01:27:57.748Z,31.40
2022-12-19T01:30:26.508Z,28.03
2022-12-19T01:32:57.287Z,25.97
2022-12-19T01:35:25.756Z,26.37
2022-12-19T01:38:00.437Z,27.63
2022-12-19T01:40:38.909Z,26.70
2022-12-19T01:43:08.172Z,27.77
2022-12-19T01:45:43.590Z,31.53
2022-12-19T01:48:19.772Z,25.77
2022-12-19T01:51:01.182Z,25.77
2022-12-19T01:53:34.931Z,26.93
2022-12-19T01:56:08.088Z,30.73
2022-12-19T01:58:37.629Z,28.23
2022-12-19T02:01:06.358Z,27.07
2022-12-19T02:03:38.616Z,27.47
2022-12-19T02:06:09.467Z,27.20
2022-12-19T02:08:38.628Z,26.87
2022-12-19T02:11:08.388Z,32.83
2022-12-19T02:13:36.618Z,28.17
2022-12-19T02:16:15.103Z,30.63
2022-12-19T02:18:51.854Z,28.97
2022-12-19T02:21:39.817Z,25.40
2022-12-19T02:24:37.779Z,28.37
2022-12-19T02:27:37.147Z,29.27
2022-12-19T02:30:11.248Z,29.43
2022-12-19T02:32:50.371Z,29.80
2022-12-19T02:35:28.068Z,27.60
2022-12-19T02:38:08.428Z,28.50
2022-12-19T02:40:43.582Z,25.87
2022-12-19T02:43:15.166Z,28.40
2022-12-19T02:45:44.056Z,32.27
2022-12-19T02:48:19.064Z,28.33
2022-12-19T02:50:50.175Z,28.67
2022-12-19T02:53:22.322Z,27.97
2022-12-19T02:56:03.979Z,30.23
2022-12-19T02:58:52.164Z,28.37
2022-12-19T03:01:31.224Z,29.40
2022-12-19T03:04:09.254Z,31.07
2022-12-19T03:06:44.327Z,25.23
2022-12-19T03:09:21.074Z,31.03
2022-12-19T03:11:52.831Z,25.50
2022-12-19T03:14:22.621Z,28.00
2022-12-19T03:16:51.153Z,27.53
2022-12-19T03:19:21.059Z,32.30
2022-12-19T03:21:50.832Z,29.17
2022-12-19T03:24:20.155Z,23.50
2022-12-19T03:26:53.529Z,27.00
2022-12-19T03:29:29.642Z,29.80
2022-12-19T03:31:59.038Z,28.87
2022-12-19T03:34:32.549Z,29.63
2022-12-19T03:37:04.914Z,26.50
2022-12-19T03:39:35.591Z,29.27
2022-12-19T03:42:25.192Z,26.63
2022-12-19T03:44:56.683Z,26.83
2022-12-19T03:47:30.595Z,28.53
2022-12-19T03:50:00.486Z,27.43
2022-12-19T03:52:34.444Z,27.40
2022-12-19T03:55:10.032Z,27.60
2022-12-19T03:57:44.159Z,26.53
2022-12-19T04:00:15.057Z,28.17
2022-12-19T04:02:49.298Z,27.47
2022-12-19T04:05:22.156Z,26.23
2022-12-19T04:07:52.891Z,26.60
2022-12-19T04:10:24.971Z,28.17
2022-12-19T04:13:01.532Z,29.80
2022-12-19T04:15:36.292Z,31.00
2022-12-19T04:18:07.937Z,28.50
2022-12-19T04:20:41.958Z,24.00
2022-12-19T04:23:14.918Z,29.50
2022-12-19T04:25:46.457Z,29.17
2022-12-19T04:28:19.791Z,27.00
2022-12-19T04:30:49.681Z,30.07
2022-12-19T04:33:17.938Z,26.80
2022-12-19T04:35:47.606Z,28.63
2022-12-19T04:38:15.835Z,26.63
2022-12-19T04:40:44.062Z,26.33
2022-12-19T04:43:15.181Z,28.43
2022-12-19T04:45:43.407Z,31.10
2022-12-19T04:48:12.135Z,25.67
2022-12-19T04:50:40.410Z,29.37
2022-12-19T04:53:10.194Z,28.07
2022-12-19T04:55:40.193Z,26.37
2022-12-19T04:58:08.856Z,27.73
2022-12-19T05:00:37.420Z,29.33
2022-12-19T05:03:06.293Z,27.03
2022-12-19T05:05:34.751Z,26.03
2022-12-19T05:08:02.985Z,27.60
2022-12-19T05:10:32.781Z,28.90
2022-12-19T05:13:01.185Z,24.87
2022-12-19T05:15:29.719Z,27.83
2022-12-19T05:17:58.914Z,27.40
2022-12-19T05:20:27.374Z,27.63
2022-12-19T05:22:55.587Z,25.70
2022-12-19T05:25:23.747Z,30.43
2022-12-19T05:27:53.394Z,23.77
2022-12-19T05:30:24.456Z,25.53
2022-12-19T05:32:52.790Z,28.00
2022-12-19T05:35:21.048Z,26.70
2022-12-19T05:37:49.633Z,26.33
2022-12-19T05:40:18.046Z,25.63
2022-12-19T05:42:46.362Z,26.37
2022-12-19T05:45:16.045Z,27.47
2022-12-19T05:47:46.784Z,23.00
2022-12-19T05:50:15.253Z,28.23
2022-12-19T05:52:44.174Z,29.00
2022-12-19T05:55:13.653Z,29.57
2022-12-19T05:57:41.820Z,29.33
2022-12-19T06:00:11.413Z,27.57
2022-12-19T06:02:41.294Z,26.67
2022-12-19T06:05:10.218Z,29.10
2022-12-19T06:07:38.775Z,27.50
2022-12-19T06:10:08.081Z,28.53
2022-12-19T06:12:36.295Z,24.27
2022-12-19T06:15:04.663Z,26.97
2022-12-19T06:17:33.050Z,27.10
2022-12-19T06:20:02.651Z,25.23
2022-12-19T06:22:30.997Z,25.90
2022-12-19T06:24:59.393Z,29.80
2022-12-19T06:27:27.619Z,28.27
2022-12-19T06:29:55.951Z,23.87
2022-12-19T06:32:24.615Z,26.53
2022-12-19T06:35:04.168Z,23.77
2022-12-19T06:37:38.924Z,30.63
2022-12-19T06:40:29.085Z,29.03
2022-12-19T06:42:56.497Z,27.93
2022-12-19T06:45:24.816Z,27.80
2022-12-19T06:47:52.996Z,29.50
2022-12-19T06:50:21.290Z,30.10
2022-12-19T06:52:51.190Z,28.23
2022-12-19T06:55:19.471Z,29.17
2022-12-19T06:57:47.935Z,30.73
2022-12-19T07:00:17.258Z,30.83
2022-12-19T07:02:50.645Z,33.40
2022-12-19T07:05:19.336Z,32.83
2022-12-19T07:07:47.531Z,31.77
2022-12-19T07:10:17.285Z,30.23
2022-12-19T07:12:45.559Z,28.20
2022-12-19T07:15:13.766Z,27.73
2022-12-19T07:17:42.229Z,27.53
2022-12-19T07:20:11.682Z,30.83
2022-12-19T07:22:40.287Z,32.37
2022-12-19T07:25:09.815Z,31.77
2022-12-19T07:27:39.563Z,29.80
2022-12-19T07:30:09.495Z,30.90
2022-12-19T07:32:39.249Z,37.50
2022-12-19T07:35:08.153Z,28.77
2022-12-19T07:37:36.615Z,30.60
2022-12-19T07:40:05.239Z,33.93
2022-12-19T07:42:34.204Z,29.47
2022-12-19T07:45:03.935Z,31.33
2022-12-19T07:47:32.271Z,33.37
2022-12-19T07:50:01.507Z,32.77
2022-12-19T07:52:29.855Z,33.70
2022-12-19T07:54:58.612Z,30.20
2022-12-19T07:57:27.019Z,31.33
2022-12-19T07:59:55.493Z,30.70
2022-12-19T08:02:25.374Z,32.87
2022-12-19T08:04:53.749Z,32.20
2022-12-19T08:07:21.998Z,31.47
2022-12-19T08:09:50.284Z,30.83
2022-12-19T08:12:18.490Z,31.47
2022-12-19T08:14:46.700Z,35.47
2022-12-19T08:17:22.363Z,32.57
2022-12-19T08:19:52.329Z,36.80
2022-12-19T08:22:20.659Z,33.80
2022-12-19T08:24:49.006Z,36.23
2022-12-19T08:27:17.926Z,33.83
2022-12-19T08:29:46.323Z,31.43
2022-12-19T08:32:20.477Z,33.50
2022-12-19T08:34:52.016Z,33.83
2022-12-19T08:37:20.259Z,35.60
2022-12-19T08:39:48.523Z,31.67
2022-12-19T08:42:16.812Z,31.40
2022-12-19T08:44:45.088Z,32.87
2022-12-19T08:47:13.551Z,33.90
2022-12-19T08:49:41.961Z,35.00
2022-12-19T08:52:11.629Z,31.90
2022-12-19T08:54:40.806Z,32.13
2022-12-19T08:57:09.487Z,37.20
2022-12-19T08:59:37.739Z,33.23
2022-12-19T09:02:07.006Z,38.70
2022-12-19T09:05:58.839Z,32.87
2022-12-19T09:07:25.223Z,33.93
2022-12-19T09:09:54.106Z,34.87
2022-12-19T09:12:22.377Z,34.60
2022-12-19T09:14:50.756Z,33.73
2022-12-19T09:17:19.264Z,33.50
2022-12-19T09:19:48.283Z,33.93
2022-12-19T09:22:17.540Z,34.70
2022-12-19T09:24:47.517Z,37.53
2022-12-19T09:27:15.831Z,34.70
2022-12-19T09:29:44.640Z,34.47
2022-12-19T09:32:13.412Z,36.73
2022-12-19T09:34:42.826Z,34.27
2022-12-19T09:37:16.962Z,32.23
2022-12-19T09:39:48.142Z,38.43
2022-12-19T09:42:40.901Z,39.63
2022-12-19T09:45:34.681Z,36.83
2022-12-19T09:48:03.862Z,35.07
2022-12-19T09:50:45.151Z,37.37
2022-12-19T09:53:20.671Z,37.33
2022-12-19T09:55:53.284Z,34.13
2022-12-19T09:58:31.853Z,33.80
2022-12-19T10:01:03.788Z,31.87
2022-12-19T10:03:39.824Z,43.33
2022-12-19T10:07:07.707Z,37.93
2022-12-19T10:10:53.781Z,35.73
2022-12-19T10:12:38.707Z,35.33
2022-12-19T10:15:15.971Z,35.30
2022-12-19T10:18:19.265Z,40.33
2022-12-19T10:20:54.282Z,35.40
2022-12-19T10:23:47.701Z,34.60
2022-12-19T10:26:20.486Z,35.77
2022-12-19T10:29:02.713Z,35.80
2022-12-19T10:31:41.282Z,37.27
2022-12-19T10:34:18.698Z,34.87
2022-12-19T10:39:57.157Z,35.13
2022-12-19T10:42:34.510Z,40.70
2022-12-19T10:45:11.389Z,33.57
2022-12-19T10:47:41.491Z,34.60
2022-12-19T10:50:14.355Z,36.30
2022-12-19T10:52:52.839Z,32.40
2022-12-19T10:55:40.294Z,35.80
2022-12-19T10:58:22.727Z,33.37
2022-12-19T11:01:06.844Z,32.73
2022-12-19T11:03:36.168Z,34.67
2022-12-19T11:06:05.710Z,33.03
2022-12-19T11:08:36.288Z,37.60
2022-12-19T11:13:22.957Z,32.57
2022-12-19T11:19:31.140Z,33.23
2022-12-19T11:22:49.880Z,31.83
2022-12-19T11:29:33.185Z,29.07
2022-12-19T11:30:05.417Z,31.57
2022-12-19T11:30:25.890Z,32.40
2022-12-19T11:30:38.740Z,35.43
2022-12-19T11:32:32.171Z,33.33
2022-12-19T11:34:38.330Z,31.47
2022-12-19T11:37:18.173Z,32.43
2022-12-19T11:39:51.387Z,30.17
2022-12-19T11:42:27.087Z,32.10
2022-12-19T11:45:04.184Z,32.17
2022-12-19T11:47:37.070Z,32.53
2022-12-19T11:50:16.699Z,33.50
2022-12-19T11:53:03.947Z,32.73
2022-12-19T11:55:43.006Z,32.00
2022-12-19T11:58:12.458Z,30.13
2022-12-19T12:00:48.362Z,37.33
2022-12-19T12:03:39.340Z,34.00
2022-12-19T12:06:14.295Z,30.63
2022-12-19T12:11:44.266Z,33.07
2022-12-19T12:17:14.057Z,35.83
2022-12-19T12:24:21.294Z,37.30
2022-12-19T12:31:04.444Z,32.83
2022-12-19T12:31:19.471Z,32.30
2022-12-19T12:31:21.097Z,36.83
2022-12-19T12:31:44.602Z,34.67
2022-12-19T12:32:02.522Z,35.20
2022-12-19T12:35:33.128Z,33.30
2022-12-19T12:37:51.108Z,34.97
2022-12-19T12:39:00.802Z,34.43
2022-12-19T12:41:56.365Z,36.27
2022-12-19T12:44:33.048Z,31.60
2022-12-19T12:47:08.034Z,30.40
2022-12-19T12:49:40.444Z,32.13
2022-12-19T12:52:12.403Z,30.47
2022-12-19T12:54:46.337Z,31.20
2022-12-19T12:57:38.089Z,35.00
2022-12-19T13:00:19.693Z,31.20
2022-12-19T13:02:53.846Z,30.20
2022-12-19T13:05:38.827Z,29.43
2022-12-19T13:08:32.211Z,33.90
2022-12-19T13:11:04.991Z,32.10
2022-12-19T13:13:54.262Z,29.87
2022-12-19T13:16:51.400Z,31.83
2022-12-19T13:19:27.964Z,31.33
2022-12-19T13:22:41.592Z,28.87
2022-12-19T13:25:45.726Z,30.80
2022-12-19T13:28:40.058Z,29.53
2022-12-19T13:31:22.896Z,35.03
2022-12-19T13:34:17.506Z,31.67
2022-12-19T13:39:47.804Z,32.77
2022-12-19T13:40:12.066Z,30.63
2022-12-19T13:43:10.530Z,33.83
2022-12-19T13:45:42.885Z,32.67
2022-12-19T13:48:17.795Z,36.63
2022-12-19T13:50:49.655Z,31.50
2022-12-19T13:53:19.435Z,34.10
2022-12-19T13:55:47.948Z,35.10
2022-12-19T13:58:29.490Z,31.23
2022-12-19T14:01:08.021Z,29.97
2022-12-19T14:03:51.804Z,37.73
2022-12-19T14:06:25.365Z,33.90
2022-12-19T14:10:19.915Z,33.23
2022-12-19T14:13:40.204Z,33.67
2022-12-19T14:15:06.362Z,34.47
2022-12-19T14:17:48.712Z,30.77
2022-12-19T14:21:19.411Z,32.23
2022-12-19T14:23:09.148Z,33.43
2022-12-19T14:28:17.300Z,28.97
2022-12-19T14:28:39.452Z,34.03
2022-12-19T14:31:13.004Z,30.13
2022-12-19T14:36:35.915Z,42.90
2022-12-19T14:39:25.475Z,36.37
2022-12-19T14:42:12.501Z,31.70
2022-12-19T14:54:00.624Z,31.60
2022-12-19T14:54:03.319Z,33.90
2022-12-19T14:54:05.643Z,34.33
2022-12-19T14:54:31.210Z,33.37
2022-12-19T14:56:40.641Z,36.10
2022-12-19T14:59:06.722Z,33.10
2022-12-19T15:01:36.624Z,39.03
2022-12-19T15:04:48.204Z,32.70
2022-12-19T15:07:07.808Z,37.13
2022-12-19T15:11:07.400Z,37.07
2022-12-19T15:14:48.624Z,42.30
2022-12-19T15:15:56.665Z,35.30
2022-12-19T15:18:28.228Z,41.23
2022-12-19T15:20:59.433Z,31.90
2022-12-19T15:23:30.193Z,33.97
2022-12-19T15:26:04.511Z,32.30
2022-12-19T15:28:40.095Z,38.50
2022-12-19T15:31:19.491Z,37.53
2022-12-19T15:34:14.903Z,36.20
2022-12-19T15:36:36.285Z,35.43
2022-12-19T15:39:06.049Z,32.60
2022-12-19T15:41:34.433Z,39.07
2022-12-19T15:44:08.863Z,40.57
2022-12-19T15:46:39.991Z,37.23
2022-12-19T15:49:16.650Z,35.87
2022-12-19T15:51:46.840Z,39.00
2022-12-19T15:57:05.995Z,37.63
2022-12-19T15:59:38.540Z,42.50
2022-12-19T16:02:19.101Z,39.27
2022-12-19T16:04:48.813Z,34.60
2022-12-19T16:07:18.907Z,39.77
2022-12-19T16:09:49.113Z,36.17
2022-12-19T16:12:19.399Z,38.50
2022-12-19T16:14:50.474Z,40.63
2022-12-19T16:17:23.071Z,37.87
2022-12-19T16:19:51.860Z,34.93
2022-12-19T16:22:22.639Z,35.63
2022-12-19T16:24:54.116Z,32.63
2022-12-19T16:27:28.863Z,39.03
2022-12-19T16:29:59.288Z,34.47
2022-12-19T16:32:27.574Z,34.27
2022-12-19T16:34:55.978Z,41.50
2022-12-19T16:37:31.832Z,42.00
2022-12-19T16:40:02.337Z,37.10
2022-12-19T16:42:31.188Z,36.63
2022-12-19T16:44:59.770Z,41.93
2022-12-19T16:47:28.305Z,38.90
2022-12-19T16:49:57.162Z,42.40
2022-12-19T16:52:25.508Z,41.10
2022-12-19T16:54:54.215Z,38.50
2022-12-19T16:57:23.959Z,40.10
2022-12-19T16:59:54.844Z,40.00
2022-12-19T17:02:49.032Z,41.87
2022-12-19T17:05:20.762Z,39.83
2022-12-19T17:07:49.905Z,38.10
2022-12-19T17:10:25.684Z,38.47
2022-12-19T17:12:57.186Z,39.07
2022-12-19T17:15:28.751Z,36.17
2022-12-19T17:17:59.700Z,36.90
2022-12-19T17:20:32.787Z,35.87
2022-12-19T17:23:01.091Z,38.83
2022-12-19T17:25:29.655Z,41.93
2022-12-19T17:28:00.410Z,43.20
2022-12-19T17:30:29.328Z,43.73
2022-12-19T17:32:57.916Z,41.00
2022-12-19T17:35:30.157Z,40.37
2022-12-19T17:37:59.301Z,41.43
2022-12-19T17:40:29.616Z,40.80
2022-12-19T17:43:00.808Z,41.60
2022-12-19T17:45:31.061Z,38.13
2022-12-19T17:48:03.509Z,43.03
2022-12-19T17:50:37.447Z,37.07
2022-12-19T17:53:06.056Z,39.97
2022-12-19T17:55:34.739Z,42.40
2022-12-19T17:58:04.430Z,44.67
2022-12-19T18:00:34.763Z,43.30
2022-12-19T18:03:06.785Z,41.23
2022-12-19T18:05:37.130Z,39.90
2022-12-19T18:08:07.976Z,43.10
2022-12-19T18:10:36.194Z,42.33
2022-12-19T18:13:06.739Z,45.50
2022-12-19T18:15:35.546Z,39.43
2022-12-19T18:18:03.873Z,37.60
2022-12-19T18:20:33.925Z,41.80
2022-12-19T18:23:02.498Z,43.00
2022-12-19T18:25:35.904Z,44.30
2022-12-19T18:28:05.577Z,40.23
2022-12-19T18:30:34.061Z,47.77
2022-12-19T18:33:04.133Z,45.37
2022-12-19T18:35:36.238Z,45.10
2022-12-19T18:38:08.446Z,41.93
2022-12-19T18:40:37.284Z,42.47
2022-12-19T18:43:08.099Z,42.33
2022-12-19T18:45:43.964Z,42.70
2022-12-19T18:48:18.328Z,41.73
2022-12-19T18:50:46.802Z,38.07
2022-12-19T18:53:18.222Z,46.70
2022-12-19T18:55:46.647Z,41.93
2022-12-19T18:58:16.529Z,41.97
2022-12-19T19:00:45.207Z,40.70
2022-12-19T19:03:16.872Z,40.47
2022-12-19T19:05:46.510Z,36.87
2022-12-19T19:08:18.465Z,41.00
2022-12-19T19:10:48.757Z,40.83
2022-12-19T19:13:19.673Z,42.23
2022-12-19T19:15:50.316Z,39.30
2022-12-19T19:18:22.016Z,43.03
2022-12-19T19:20:57.182Z,40.50
2022-12-19T19:23:34.836Z,39.70
2022-12-19T19:26:03.172Z,40.20
2022-12-19T19:28:32.845Z,43.33
2022-12-19T19:31:02.609Z,46.13
2022-12-19T19:33:34.291Z,42.30
2022-12-19T19:36:11.559Z,44.77
2022-12-19T19:38:42.519Z,38.40
2022-12-19T19:41:10.906Z,43.37
2022-12-19T19:43:41.223Z,43.43
2022-12-19T19:46:10.004Z,44.50
2022-12-19T19:48:38.750Z,37.97
2022-12-19T19:51:07.112Z,45.50
2022-12-19T19:53:36.162Z,45.40
2022-12-19T19:56:05.044Z,43.30
2022-12-19T19:58:33.628Z,40.93
2022-12-19T20:01:08.968Z,43.97
2022-12-19T20:03:37.586Z,44.90
2022-12-19T20:06:06.318Z,44.83
2022-12-19T20:08:39.662Z,38.23
2022-12-19T20:11:10.700Z,43.03
2022-12-19T20:13:39.548Z,44.23
2022-12-19T20:16:11.749Z,45.83
2022-12-19T20:18:41.404Z,43.23
2022-12-19T20:21:13.067Z,38.17
2022-12-19T20:23:44.037Z,40.83
2022-12-19T20:26:13.705Z,42.50
2022-12-19T20:28:48.343Z,39.73
2022-12-19T20:31:20.996Z,37.27
2022-12-19T20:33:50.621Z,42.67
2022-12-19T20:36:19.122Z,43.17
2022-12-19T20:38:48.345Z,42.67
2022-12-19T20:41:17.329Z,40.23
2022-12-19T20:43:46.024Z,40.67
2022-12-19T20:46:16.293Z,43.67
2022-12-19T20:48:47.211Z,39.90
2022-12-19T20:51:16.877Z,39.67
2022-12-19T20:53:45.325Z,42.00
2022-12-19T20:56:16.116Z,43.73
2022-12-19T20:58:44.645Z,39.77
2022-12-19T21:01:15.124Z,39.23
2022-12-19T21:03:47.025Z,41.70
2022-12-19T21:06:19.239Z,40.33
2022-12-19T21:08:48.412Z,37.03
2022-12-19T21:11:16.967Z,39.80
2022-12-19T21:13:45.824Z,39.03
2022-12-19T21:16:19.867Z,39.23
2022-12-19T21:18:53.697Z,45.93
2022-12-19T21:21:24.528Z,42.30
2022-12-19T21:23:54.756Z,42.17
2022-12-19T21:26:25.739Z,41.03
2022-12-19T21:28:57.896Z,40.70
2022-12-19T21:31:29.111Z,45.47
2022-12-19T21:34:00.602Z,45.63
2022-12-19T21:36:30.487Z,42.37
2022-12-19T21:39:01.928Z,46.07
2022-12-19T21:41:31.203Z,43.30
2022-12-19T21:44:00.731Z,45.43
2022-12-19T21:46:30.634Z,43.13
2022-12-19T21:49:01.316Z,48.73
2022-12-19T21:51:31.789Z,44.23
2022-12-19T21:54:02.044Z,46.97
2022-12-19T21:56:32.252Z,43.23
2022-12-19T21:59:03.113Z,45.57
2022-12-19T22:01:32.393Z,38.27
2022-12-19T22:04:03.984Z,41.97
2022-12-19T22:06:33.470Z,45.33
2022-12-19T22:09:02.253Z,41.83
2022-12-19T22:11:31.689Z,40.30
2022-12-19T22:14:01.777Z,44.13
2022-12-19T22:16:30.560Z,45.07
2022-12-19T22:18:59.323Z,43.37
2022-12-19T22:21:29.532Z,43.03
2022-12-19T22:23:59.373Z,41.07
2022-12-19T22:26:29.590Z,40.93
2022-12-19T22:28:59.376Z,41.03
2022-12-19T22:31:29.617Z,41.43
2022-12-19T22:34:00.013Z,45.60
2022-12-19T22:36:31.997Z,38.73
2022-12-19T22:39:02.195Z,43.60
2022-12-19T22:41:33.029Z,41.40
2022-12-19T22:44:01.477Z,42.13
2022-12-19T22:46:31.642Z,41.80
2022-12-19T22:49:04.883Z,45.30
2022-12-19T22:51:36.821Z,41.77
2022-12-19T22:54:05.936Z,42.30
2022-12-19T22:56:35.068Z,41.67
2022-12-19T22:59:05.470Z,48.63
2022-12-19T23:01:37.054Z,41.63
2022-12-19T23:04:07.174Z,44.20
2022-12-19T23:06:38.449Z,42.30
2022-12-19T23:09:08.678Z,44.60
2022-12-19T23:11:38.938Z,44.10
2022-12-19T23:14:10.194Z,37.47
2022-12-19T23:16:38.652Z,37.63
2022-12-19T23:19:06.953Z,38.90
2022-12-19T23:21:37.094Z,37.00
2022-12-19T23:24:05.916Z,44.87
2022-12-19T23:26:35.912Z,40.03
2022-12-19T23:29:06.443Z,37.17
2022-12-19T23:31:35.251Z,38.87
2022-12-19T23:34:03.729Z,38.90
2022-12-19T23:37:08.941Z,37.10
2022-12-19T23:39:21.717Z,38.00
2022-12-19T23:41:50.102Z,38.17
2022-12-19T23:44:18.607Z,33.00
2022-12-19T23:46:46.995Z,37.23
2022-12-19T23:49:16.105Z,34.43
2022-12-19T23:51:44.517Z,37.13
2022-12-19T23:54:12.898Z,35.13
2022-12-19T23:56:42.627Z,33.53
2022-12-19T23:59:10.957Z,34.70
